Time;durP1;ratioP1;P1;durP2;ratioP2;P2;SDS_P1;SDS_P2;PMS_P1;PMS_P2;Temp;Humidity;BMP_temperature;BMP_pressure;BME280_temperature;BME280_humidity;BME280_pressure;Samples;Min_cycle;Max_cycle;Signal;HPM_P1;HPM_P2
2022/03/03 00:01:04;;;;;;;;;;;;;;;1.22;100.00;101948.09;5212054;28;20000;-61
2022/03/03 00:03:35;;;;;;;;;;;;;;;1.13;100.00;101949.13;5211774;28;20019;-61
2022/03/03 00:06:05;;;;;;;;;;;;;;;1.04;100.00;101944.81;5211870;28;20446;-61
2022/03/03 00:08:35;;;;;;;;;;;;;;;0.94;100.00;101944.13;5212041;28;20367;-61
2022/03/03 00:11:05;;;;;;;;;;;;;;;0.86;100.00;101952.13;5212562;28;19919;-61
2022/03/03 00:13:36;;;;;;;;;;;;;;;0.41;100.00;101886.94;5211636;28;19913;-61
2022/03/03 00:16:07;;;;;;;;;;;;;;;0.74;100.00;101956.09;5211822;28;19959;-61
2022/03/03 00:18:38;;;;;;;;;;;;;;;0.74;100.00;101958.75;5211833;28;19917;-61
2022/03/03 00:21:08;;;;;;;;;;;;;;;0.67;100.00;101955.91;5212062;28;20240;-61
2022/03/03 00:23:38;;;;;;;;;;;;;;;0.64;100.00;101961.56;5211904;28;19912;-61
2022/03/03 00:26:09;;;;;;;;;;;;;;;0.59;100.00;101964.69;5229872;28;20008;-61
2022/03/03 00:28:39;;;;;;;;;;;;;;;0.58;100.00;101957.72;5212354;28;19975;-61
2022/03/03 00:31:10;;;;;;;;;;;;;;;0.61;100.00;101957.41;5211760;28;19913;-61
2022/03/03 00:33:40;;;;;;;;;;;;;;;0.60;100.00;101960.22;5211628;28;19920;-61
2022/03/03 00:36:10;;;;;;;;;;;;;;;0.65;100.00;101950.75;5212016;28;19921;-61
2022/03/03 00:38:41;;;;;;;;;;;;;;;0.68;100.00;101946.94;5229574;28;19923;-62
2022/03/03 00:41:11;;;;;;;;;;;;;;;0.60;100.00;101946.94;5229693;28;19917;-61
2022/03/03 00:43:41;;;;;;;;;;;;;;;0.05;100.00;101869.63;5211474;28;19921;-61
2022/03/03 00:46:11;;;;;;;;;;;;;;;0.43;100.00;101947.91;5211845;28;19921;-61
2022/03/03 00:48:42;;;;;;;;;;;;;;;0.24;100.00;101951.69;5211566;28;19913;-61
2022/03/03 00:51:12;;;;;;;;;;;;;;;0.12;100.00;101950.31;5211883;28;19912;-60
2022/03/03 00:53:42;;;;;;;;;;;;;;;0.07;100.00;101947.28;5209753;28;19917;-60
2022/03/03 00:56:13;;;;;;;;;;;;;;;0.07;100.00;101949.94;5209622;28;19913;-60
2022/03/03 00:58:43;;;;;;;;;;;;;;;0.07;100.00;101955.25;5209527;28;19917;-59
2022/03/03 01:01:14;;;;;;;;;;;;;;;0.13;100.00;101951.97;5209553;28;19913;-60
2022/03/03 01:03:44;;;;;;;;;;;;;;;0.15;100.00;101950.00;5209196;28;19981;-60
2022/03/03 01:06:15;;;;;;;;;;;;;;;0.08;100.00;101955.09;5209490;28;20053;-60
2022/03/03 01:08:45;;;;;;;;;;;;;;;0.07;100.00;101949.94;5209345;28;19913;-60
2022/03/03 01:11:15;;;;;;;;;;;;;;;0.00;100.00;101950.59;5209567;28;19913;-59
2022/03/03 01:13:46;;;;;;;;;;;;;;;-0.03;100.00;101939.47;5209012;28;19936;-60
2022/03/03 01:16:16;;;;;;;;;;;;;;;-0.10;100.00;101935.78;5227139;28;19913;-59
2022/03/03 01:18:46;;;;;;;;;;;;;;;-0.15;100.00;101932.78;5208956;28;20023;-60
2022/03/03 01:21:17;;;;;;;;;;;;;;;-0.56;100.00;101894.59;5209185;28;20005;-59
2022/03/03 01:23:47;;;;;;;;;;;;;;;-0.18;100.00;101933.94;5208830;28;19928;-59
2022/03/03 01:26:18;;;;;;;;;;;;;;;-0.14;100.00;101931.78;5209146;28;19920;-59
2022/03/03 01:28:49;;;;;;;;;;;;;;;-0.24;100.00;101933.72;5209015;28;19959;-59
2022/03/03 01:31:19;;;;;;;;;;;;;;;-0.37;100.00;101931.53;5208932;28;19912;-58
2022/03/03 01:33:49;;;;;;;;;;;;;;;-0.45;100.00;101929.66;5208516;28;20372;-59
2022/03/03 01:36:19;;;;;;;;;;;;;;;-0.53;100.00;101924.28;5226910;28;19913;-59
2022/03/03 01:38:50;;;;;;;;;;;;;;;-0.61;100.00;101926.09;5208734;28;19916;-66
2022/03/03 01:41:21;;;;;;;;;;;;;;;-0.72;100.00;101919.22;5208698;28;19955;-59
2022/03/03 01:43:51;;;;;;;;;;;;;;;-0.79;100.00;101921.66;5208410;28;20011;-60
2022/03/03 01:46:22;;;;;;;;;;;;;;;-0.83;100.00;101914.16;5208825;28;20015;-59
2022/03/03 01:48:52;;;;;;;;;;;;;;;-0.88;100.00;101919.97;5208644;28;20241;-59
2022/03/03 01:51:22;;;;;;;;;;;;;;;-0.95;100.00;101905.66;5226484;28;20004;-61
2022/03/03 01:53:53;;;;;;;;;;;;;;;-1.32;100.00;101852.03;5208290;28;19912;-59
2022/03/03 01:56:23;;;;;;;;;;;;;;;-0.84;100.00;101915.97;5208563;28;19958;-58
2022/03/03 01:58:54;;;;;;;;;;;;;;;-0.60;100.00;101907.38;5208678;28;19917;-58
2022/03/03 02:01:24;;;;;;;;;;;;;;;-0.36;100.00;101904.00;5208477;28;20049;-59
2022/03/03 02:03:54;;;;;;;;;;;;;;;-0.16;100.00;101899.25;5207744;28;19940;-61
2022/03/03 02:06:25;;;;;;;;;;;;;;;-0.05;100.00;101902.47;5208298;28;19912;-59
2022/03/03 02:08:55;;;;;;;;;;;;;;;-0.05;100.00;101889.19;5208249;28;19917;-59
2022/03/03 02:11:26;;;;;;;;;;;;;;;-0.12;100.00;101892.63;5208239;28;20028;-60
2022/03/03 02:13:56;;;;;;;;;;;;;;;-0.14;100.00;101891.97;5207922;28;19913;-60
2022/03/03 02:16:26;;;;;;;;;;;;;;;-0.18;100.00;101888.81;5208113;28;19913;-59
2022/03/03 02:18:57;;;;;;;;;;;;;;;-0.19;100.00;101881.81;5207746;28;19917;-59
2022/03/03 02:21:27;;;;;;;;;;;;;;;-0.22;100.00;101879.50;5208013;28;19913;-59
2022/03/03 02:23:57;;;;;;;;;;;;;;;-0.24;100.00;101878.81;5207731;28;20293;-59
2022/03/03 02:26:28;;;;;;;;;;;;;;;-0.23;100.00;101882.31;5208152;28;19913;-59
2022/03/03 02:28:58;;;;;;;;;;;;;;;-0.21;100.00;101872.34;5207893;28;19913;-59
2022/03/03 02:31:28;;;;;;;;;;;;;;;-0.16;100.00;101876.19;5208061;28;19913;-60
2022/03/03 02:33:59;;;;;;;;;;;;;;;-0.10;100.00;101867.59;5207585;28;19912;-59
2022/03/03 02:36:29;;;;;;;;;;;;;;;-0.04;100.00;101882.06;5208256;28;19985;-60
2022/03/03 02:39:01;;;;;;;;;;;;;;;-0.03;100.00;101865.13;5207931;28;19916;-58
2022/03/03 02:41:31;;;;;;;;;;;;;;;-0.05;100.00;101864.47;5207582;28;19952;-60
2022/03/03 02:44:02;;;;;;;;;;;;;;;-0.09;100.00;101863.13;5207833;28;20340;-61
2022/03/03 02:46:32;;;;;;;;;;;;;;;-0.13;100.00;101865.25;5207789;28;20009;-59
2022/03/03 02:49:04;;;;;;;;;;;;;;;-0.10;100.00;101867.59;5207924;28;19920;-59
2022/03/03 02:51:35;;;;;;;;;;;;;;;-0.03;100.00;101862.47;5207572;28;19919;-59
2022/03/03 02:54:09;;;;;;;;;;;;;;;-0.04;100.00;101861.66;5225267;28;19912;-58
2022/03/03 02:59:28;;;;;;;;;;;;;;;-0.06;100.00;101850.34;5225394;28;19924;-60
2022/03/03 03:01:58;;;;;;;;;;;;;;;-0.05;100.00;101852.03;5207701;28;19912;-58
2022/03/03 03:04:29;;;;;;;;;;;;;;;-0.06;100.00;101852.19;5207219;28;19967;-60
2022/03/03 03:06:59;;;;;;;;;;;;;;;-0.10;100.00;101851.66;5207562;28;19919;-58
2022/03/03 03:09:29;;;;;;;;;;;;;;;-0.12;100.00;101848.34;5207472;28;19913;-58
2022/03/03 03:12:00;;;;;;;;;;;;;;;-0.12;100.00;101845.69;5207437;28;19944;-59
2022/03/03 03:14:30;;;;;;;;;;;;;;;-0.11;100.00;101838.56;5207233;28;20398;-59
2022/03/03 03:17:00;;;;;;;;;;;;;;;-0.12;100.00;101836.91;5209344;28;20331;-59
2022/03/03 03:19:31;;;;;;;;;;;;;;;-0.10;100.00;101834.91;5211786;28;20427;-59
2022/03/03 03:22:02;;;;;;;;;;;;;;;-0.10;100.00;101833.09;5211360;28;19917;-58
2022/03/03 03:24:32;;;;;;;;;;;;;;;-0.06;100.00;101826.47;5211499;28;20367;-59
2022/03/03 03:27:02;;;;;;;;;;;;;;;-0.03;100.00;101823.47;5211565;28;19919;-60
2022/03/03 03:29:33;;;;;;;;;;;;;;;0.00;100.00;101820.47;5229073;28;19978;-59
2022/03/03 03:32:03;;;;;;;;;;;;;;;0.00;100.00;101819.69;5211363;28;19912;-60
2022/03/03 03:34:33;;;;;;;;;;;;;;;-0.01;100.00;101826.81;5211105;28;19916;-60
2022/03/03 03:37:04;;;;;;;;;;;;;;;-0.01;100.00;101826.81;5211334;28;19912;-60
2022/03/03 03:39:34;;;;;;;;;;;;;;;-0.06;100.00;101823.81;5211269;28;19916;-60
2022/03/03 03:42:05;;;;;;;;;;;;;;;-0.09;100.00;101823.28;5211284;28;19975;-60
2022/03/03 03:44:35;;;;;;;;;;;;;;;-0.10;100.00;101819.81;5210786;28;20381;-60
2022/03/03 03:47:06;;;;;;;;;;;;;;;-0.15;100.00;101819.47;5211347;28;19921;-60
2022/03/03 03:49:36;;;;;;;;;;;;;;;-0.21;100.00;101822.75;5210901;28;20289;-59
2022/03/03 03:52:07;;;;;;;;;;;;;;;-0.30;100.00;101818.44;5210903;28;19977;-60
2022/03/03 03:54:37;;;;;;;;;;;;;;;-0.36;100.00;101821.72;5210475;28;20287;-60
2022/03/03 03:57:07;;;;;;;;;;;;;;;-0.41;100.00;101816.91;5210945;28;20259;-60
2022/03/03 03:59:37;;;;;;;;;;;;;;;-0.45;100.00;101823.53;5210695;28;20300;-60
2022/03/03 04:02:08;;;;;;;;;;;;;;;-0.53;100.00;101822.66;5228645;28;19920;-60
2022/03/03 04:04:38;;;;;;;;;;;;;;;-0.58;100.00;101830.28;5210309;28;19962;-58
2022/03/03 04:07:08;;;;;;;;;;;;;;;-0.63;100.00;101828.09;5210801;28;20015;-60
2022/03/03 04:09:39;;;;;;;;;;;;;;;-1.14;100.00;101762.69;5210619;28;19935;-60
2022/03/03 04:12:09;;;;;;;;;;;;;;;-0.71;100.00;101825.41;5210598;28;19970;-60
2022/03/03 04:14:40;;;;;;;;;;;;;;;-0.75;100.00;101840.78;5210151;28;19913;-59
2022/03/03 04:17:11;;;;;;;;;;;;;;;-0.74;100.00;101831.03;5210443;28;19913;-60
2022/03/03 04:19:41;;;;;;;;;;;;;;;-0.75;100.00;101827.53;5210074;28;19966;-60
2022/03/03 04:22:11;;;;;;;;;;;;;;;-0.75;100.00;101819.56;5210755;28;20347;-60
2022/03/03 04:24:42;;;;;;;;;;;;;;;-0.71;100.00;101820.09;5210327;28;19990;-59
2022/03/03 04:27:12;;;;;;;;;;;;;;;-0.77;100.00;101816.25;5209918;28;19913;-60
2022/03/03 04:29:42;;;;;;;;;;;;;;;-0.81;100.00;101812.25;5210118;28;19920;-62
2022/03/03 04:32:13;;;;;;;;;;;;;;;-0.78;100.00;101819.06;5210079;28;19944;-60
2022/03/03 04:34:43;;;;;;;;;;;;;;;-0.76;100.00;101812.59;5210115;28;20065;-59
2022/03/03 04:37:13;;;;;;;;;;;;;;;-0.78;100.00;101808.44;5210005;28;19913;-60
2022/03/03 04:39:44;;;;;;;;;;;;;;;-0.88;100.00;101818.38;5210018;28;20004;-60
2022/03/03 04:42:14;;;;;;;;;;;;;;;-1.02;100.00;101817.13;5209808;28;19974;-60
2022/03/03 04:44:44;;;;;;;;;;;;;;;-1.16;100.00;101809.75;5209500;28;20023;-60
2022/03/03 04:47:15;;;;;;;;;;;;;;;-1.23;100.00;101803.41;5210137;28;19912;-60
2022/03/03 04:49:45;;;;;;;;;;;;;;;-1.30;100.00;101800.53;5209533;28;19992;-60
2022/03/03 04:52:15;;;;;;;;;;;;;;;-1.30;100.00;101797.91;5209815;28;19921;-60
2022/03/03 04:54:46;;;;;;;;;;;;;;;-1.32;100.00;101806.97;5209466;28;19919;-60
2022/03/03 04:57:16;;;;;;;;;;;;;;;-1.40;100.00;101807.75;5209876;28;19913;-60
2022/03/03 04:59:47;;;;;;;;;;;;;;;-1.49;100.00;101814.81;5209504;28;19967;-59
2022/03/03 05:02:17;;;;;;;;;;;;;;;-1.55;100.00;101807.47;5209307;28;20247;-59
2022/03/03 05:04:47;;;;;;;;;;;;;;;-1.53;100.00;101807.34;5209502;28;20015;-59
2022/03/03 05:07:19;;;;;;;;;;;;;;;-1.49;100.00;101809.53;5209639;28;19917;-59
2022/03/03 05:09:49;;;;;;;;;;;;;;;-1.44;100.00;101801.09;5209360;28;19913;-59
2022/03/03 05:12:19;;;;;;;;;;;;;;;-1.37;100.00;101805.63;5209386;28;19913;-59
2022/03/03 05:14:50;;;;;;;;;;;;;;;-1.29;100.00;101796.91;5209036;28;20035;-58
2022/03/03 05:17:20;;;;;;;;;;;;;;;-1.19;100.00;101808.25;5209240;28;19919;-59
2022/03/03 05:19:50;;;;;;;;;;;;;;;-1.12;100.00;101803.13;5227024;28;20352;-59
2022/03/03 05:22:21;;;;;;;;;;;;;;;-1.06;100.00;101798.03;5209240;28;19913;-59
2022/03/03 05:24:53;;;;;;;;;;;;;;;-1.03;100.00;101799.53;5209014;28;19917;-59
2022/03/03 05:27:24;;;;;;;;;;;;;;;-1.01;100.00;101800.22;5209476;28;19913;-60
2022/03/03 05:29:54;;;;;;;;;;;;;;;-1.06;100.00;101794.56;5209250;28;20252;-59
2022/03/03 05:32:25;;;;;;;;;;;;;;;-1.12;100.00;101803.97;5208986;28;20046;-59
2022/03/03 05:34:55;;;;;;;;;;;;;;;-1.14;100.00;101803.28;5208634;28;19913;-59
2022/03/03 05:37:26;;;;;;;;;;;;;;;-1.20;100.00;101808.41;5209281;28;20400;-59
2022/03/03 05:39:56;;;;;;;;;;;;;;;-1.28;100.00;101805.69;5208298;28;19959;-59
2022/03/03 05:42:26;;;;;;;;;;;;;;;-1.35;100.00;101810.75;5208780;28;19983;-59
2022/03/03 05:44:57;;;;;;;;;;;;;;;-1.49;100.00;101809.53;5217992;22;19925;-63
2022/03/03 05:47:28;;;;;;;;;;;;;;;-1.63;100.00;101814.53;5217676;28;19916;-64
2022/03/03 05:50:00;;;;;;;;;;;;;;;-1.80;100.00;101805.63;5226979;28;19934;-64
2022/03/03 05:52:30;;;;;;;;;;;;;;;-1.92;100.00;101797.06;5208792;28;19940;-63
2022/03/03 05:55:00;;;;;;;;;;;;;;;-2.06;100.00;101811.69;5208593;28;20383;-64
2022/03/03 05:57:57;;;;;;;;;;;;;;;-2.21;100.00;101807.03;5208940;28;19962;-63
2022/03/03 06:00:29;;;;;;;;;;;;;;;-2.33;100.00;101811.72;5204266;28;19917;-63
2022/03/03 06:03:01;;;;;;;;;;;;;;;-2.43;100.00;101808.28;5208074;28;19979;-63
2022/03/03 06:05:32;;;;;;;;;;;;;;;-2.51;100.00;101816.94;5207750;28;19913;-64
2022/03/03 06:08:04;;;;;;;;;;;;;;;-2.54;100.00;101809.31;5207903;28;19912;-63
2022/03/03 06:10:35;;;;;;;;;;;;;;;-2.58;100.00;101813.22;5208012;28;20276;-64
2022/03/03 06:13:18;;;;;;;;;;;;;;;-2.62;100.00;101816.34;5207899;28;19913;-64
2022/03/03 06:15:48;;;;;;;;;;;;;;;-2.66;100.00;101807.84;5225645;28;20380;-64
2022/03/03 06:18:23;;;;;;;;;;;;;;;-2.69;100.00;101812.59;5207946;28;19921;-64
2022/03/03 06:20:54;;;;;;;;;;;;;;;-2.70;100.00;101806.47;5225717;28;19920;-64
2022/03/03 06:23:25;;;;;;;;;;;;;;;-2.67;100.00;101800.91;5207351;28;19913;-64
2022/03/03 06:26:10;;;;;;;;;;;;;;;-2.52;100.00;101801.22;5207696;28;19913;-64
2022/03/03 06:28:40;;;;;;;;;;;;;;;-2.34;100.00;101793.34;5225634;28;20237;-64
2022/03/03 06:31:11;;;;;;;;;;;;;;;-2.14;100.00;101798.34;5191104;28;20377;-64
2022/03/03 06:33:42;;;;;;;;;;;;;;;-1.95;100.00;101797.38;5207125;28;19917;-64
2022/03/03 06:36:14;;;;;;;;;;;;;;;-1.86;100.00;101793.81;5207812;28;19962;-64
2022/03/03 06:38:44;;;;;;;;;;;;;;;-1.80;100.00;101790.56;5207374;28;20020;-64
2022/03/03 06:41:16;;;;;;;;;;;;;;;-1.75;100.00;101801.53;5225289;28;20408;-64
2022/03/03 06:43:46;;;;;;;;;;;;;;;-1.58;100.00;101799.00;5207157;28;19923;-65
2022/03/03 06:46:18;;;;;;;;;;;;;;;-1.45;100.00;101805.59;5207644;28;20388;-64
2022/03/03 06:48:48;;;;;;;;;;;;;;;-1.37;100.00;101799.50;5207359;28;19988;-65
2022/03/03 06:51:21;;;;;;;;;;;;;;;-1.28;100.00;101792.44;5207044;28;19970;-64
2022/03/03 06:53:55;;;;;;;;;;;;;;;-1.24;100.00;101801.75;5206860;28;19919;-64
2022/03/03 06:56:29;;;;;;;;;;;;;;;-1.49;100.00;101753.91;5207225;28;19913;-64
2022/03/03 06:58:59;;;;;;;;;;;;;;;-1.15;100.00;101792.84;5207099;28;19921;-64
2022/03/03 07:01:30;;;;;;;;;;;;;;;-1.08;100.00;101796.53;5206848;28;19935;-64
2022/03/03 07:04:01;;;;;;;;;;;;;;;-1.02;100.00;101799.38;5206852;28;20292;-64
2022/03/03 07:06:31;;;;;;;;;;;;;;;-0.98;100.00;101807.88;5225197;28;19966;-64
2022/03/03 07:09:02;;;;;;;;;;;;;;;-0.97;100.00;101803.41;5207135;28;19913;-64
2022/03/03 07:11:32;;;;;;;;;;;;;;;-0.94;100.00;101809.22;5225025;28;19913;-65
2022/03/03 07:14:03;;;;;;;;;;;;;;;-0.95;100.00;101812.03;5206749;28;19923;-64
2022/03/03 07:16:36;;;;;;;;;;;;;;;-0.97;100.00;101809.53;5207104;28;20383;-64
2022/03/03 07:19:27;;;;;;;;;;;;;;;-0.95;100.00;101809.38;5206913;28;20448;-64
2022/03/03 07:22:18;;;;;;;;;;;;;;;-0.95;100.00;101807.56;5183770;28;19913;-64
2022/03/03 07:24:52;;;;;;;;;;;;;;;-0.94;100.00;101816.34;5206643;28;19913;-64
2022/03/03 07:27:23;;;;;;;;;;;;;;;-0.91;100.00;101818.69;5224795;28;19913;-64
2022/03/03 07:29:58;;;;;;;;;;;;;;;-0.85;100.00;101818.03;5207066;28;19952;-64
2022/03/03 07:32:39;;;;;;;;;;;;;;;-0.81;100.00;101822.84;5206788;28;19912;-64
2022/03/03 07:35:12;;;;;;;;;;;;;;;-0.71;100.00;101815.63;5206478;28;19939;-63
2022/03/03 07:37:46;;;;;;;;;;;;;;;-0.57;100.00;101811.53;5206943;28;19913;-63
2022/03/03 07:40:16;;;;;;;;;;;;;;;-0.47;100.00;101811.41;5207123;28;20011;-63
2022/03/03 07:42:46;;;;;;;;;;;;;;;-0.37;100.00;101817.41;5207029;28;20011;-62
2022/03/03 07:45:17;;;;;;;;;;;;;;;-0.25;100.00;101821.41;5207031;28;19921;-63
2022/03/03 07:47:51;;;;;;;;;;;;;;;-0.13;100.00;101819.31;5207245;28;20356;-62
2022/03/03 07:50:22;;;;;;;;;;;;;;;0.05;100.00;101825.31;5207196;28;19913;-62
2022/03/03 07:52:54;;;;;;;;;;;;;;;0.21;100.00;101814.72;5206707;28;19913;-62
2022/03/03 07:55:24;;;;;;;;;;;;;;;0.32;100.00;101810.88;5206471;28;19921;-62
2022/03/03 07:58:02;;;;;;;;;;;;;;;0.45;100.00;101819.19;5206607;28;19912;-63
2022/03/03 08:00:34;;;;;;;;;;;;;;;0.55;100.00;101813.72;5207038;28;19920;-63
2022/03/03 08:03:08;;;;;;;;;;;;;;;0.57;100.00;101815.22;5208791;28;19913;-62
2022/03/03 08:05:39;;;;;;;;;;;;;;;0.62;100.00;101818.19;5210703;28;19912;-63
2022/03/03 08:08:12;;;;;;;;;;;;;;;0.66;100.00;101808.88;5212892;28;19924;-62
2022/03/03 08:10:43;;;;;;;;;;;;;;;0.77;100.00;101814.88;5228847;28;19920;-63
2022/03/03 08:13:17;;;;;;;;;;;;;;;0.81;100.00;101814.38;5210157;28;20330;-63
2022/03/03 08:15:47;;;;;;;;;;;;;;;0.87;100.00;101812.84;5210455;28;20391;-62
2022/03/03 08:18:18;;;;;;;;;;;;;;;0.90;100.00;101812.50;5210308;28;19917;-62
2022/03/03 08:20:51;;;;;;;;;;;;;;;0.95;100.00;101799.53;5210524;28;19913;-63
2022/03/03 08:23:25;;;;;;;;;;;;;;;1.02;100.00;101811.97;5210338;28;20402;-62
2022/03/03 08:25:56;;;;;;;;;;;;;;;1.09;100.00;101812.13;5210316;28;19913;-63
2022/03/03 08:28:26;;;;;;;;;;;;;;;1.16;100.00;101818.41;5210239;28;20380;-62
2022/03/03 08:31:04;;;;;;;;;;;;;;;1.25;100.00;101817.41;5210198;28;19919;-63
2022/03/03 08:33:49;;;;;;;;;;;;;;;1.35;100.00;101817.19;5209923;28;19994;-62
2022/03/03 08:36:34;;;;;;;;;;;;;;;1.04;100.00;101745.31;5209976;28;19960;-64
2022/03/03 08:39:05;;;;;;;;;;;;;;;1.61;100.00;101816.94;5209755;28;19917;-63
2022/03/03 08:41:36;;;;;;;;;;;;;;;1.73;100.00;101810.22;5209591;28;19962;-63
2022/03/03 08:44:08;;;;;;;;;;;;;;;1.85;100.00;101811.47;5209400;28;19913;-62
2022/03/03 08:46:41;;;;;;;;;;;;;;;2.09;100.00;101805.16;5210450;28;20013;-62
2022/03/03 08:49:13;;;;;;;;;;;;;;;2.31;100.00;101798.97;5209419;28;19916;-62
2022/03/03 08:51:43;;;;;;;;;;;;;;;2.47;100.00;101799.88;5208998;28;19913;-62
2022/03/03 08:54:14;;;;;;;;;;;;;;;2.64;100.00;101799.53;5209063;28;19913;-63
2022/03/03 08:56:44;;;;;;;;;;;;;;;2.75;100.00;101797.44;5209419;28;19932;-62
2022/03/03 08:59:14;;;;;;;;;;;;;;;2.86;100.00;101797.84;5209210;28;20347;-63
2022/03/03 09:01:45;;;;;;;;;;;;;;;3.01;100.00;101797.84;5209091;28;19966;-63
2022/03/03 09:04:15;;;;;;;;;;;;;;;2.70;100.00;101731.31;5208843;28;19935;-63
2022/03/03 09:06:45;;;;;;;;;;;;;;;3.22;100.00;101787.25;5209226;28;20003;-63
2022/03/03 09:09:16;;;;;;;;;;;;;;;3.43;100.00;101793.69;5227260;28;19913;-63
2022/03/03 09:11:46;;;;;;;;;;;;;;;3.66;100.00;101795.22;5209075;28;19913;-63
2022/03/03 09:14:16;;;;;;;;;;;;;;;3.86;100.00;101792.75;5207558;28;19912;-63
2022/03/03 09:16:47;;;;;;;;;;;;;;;4.03;100.00;101799.53;5208884;28;19940;-64
2022/03/03 09:19:17;;;;;;;;;;;;;;;4.10;100.00;101801.41;5208848;28;19917;-63
2022/03/03 09:21:48;;;;;;;;;;;;;;;4.07;100.00;101792.75;5209052;28;19913;-63
2022/03/03 09:24:18;;;;;;;;;;;;;;;4.11;100.00;101792.38;5208744;28;19975;-63
2022/03/03 09:26:48;;;;;;;;;;;;;;;4.28;100.00;101799.16;5208920;28;19943;-62
2022/03/03 09:29:19;;;;;;;;;;;;;;;4.45;100.00;101800.53;5208776;28;20031;-63
2022/03/03 09:31:50;;;;;;;;;;;;;;;4.64;100.00;101794.50;5208804;28;20008;-62
2022/03/03 09:34:20;;;;;;;;;;;;;;;4.88;100.00;101803.16;5226648;28;19920;-62
2022/03/03 09:36:51;;;;;;;;;;;;;;;5.11;100.00;101798.34;5208693;28;20027;-62
2022/03/03 09:39:21;;;;;;;;;;;;;;;5.27;100.00;101797.19;5208449;28;20003;-63
2022/03/03 09:41:52;;;;;;;;;;;;;;;5.47;100.00;101795.44;5208419;28;19913;-63
2022/03/03 09:44:23;;;;;;;;;;;;;;;5.68;100.00;101791.81;5208314;28;19962;-62
2022/03/03 09:46:54;;;;;;;;;;;;;;;5.87;100.00;101785.69;5208610;28;19958;-62
2022/03/03 09:49:25;;;;;;;;;;;;;;;6.02;100.00;101786.38;5208900;28;20400;-64
2022/03/03 09:51:55;;;;;;;;;;;;;;;6.11;100.00;101762.84;5208357;28;19912;-64
2022/03/03 09:54:26;;;;;;;;;;;;;;;6.27;100.00;101770.53;5208321;28;19913;-63
2022/03/03 09:56:56;;;;;;;;;;;;;;;6.41;98.13;101771.34;5208392;28;19913;-63
2022/03/03 09:59:26;;;;;;;;;;;;;;;6.50;96.50;101770.13;5208199;28;20023;-64
2022/03/03 10:02:04;;;;;;;;;;;;;;;6.62;96.19;101767.63;5208292;28;19912;-63
2022/03/03 10:04:35;;;;;;;;;;;;;;;6.76;95.53;101767.41;5207899;28;19962;-63
2022/03/03 10:07:06;;;;;;;;;;;;;;;6.96;95.59;101762.00;5208079;28;19913;-64
2022/03/03 10:09:59;;;;;;;;;;;;;;;7.21;96.18;101761.34;5208422;28;20351;-63
2022/03/03 10:12:40;;;;;;;;;;;;;;;7.31;92.90;101765.19;5226033;28;19948;-63
2022/03/03 10:15:14;;;;;;;;;;;;;;;7.38;89.56;101760.63;5207705;28;19960;-63
2022/03/03 10:17:45;;;;;;;;;;;;;;;7.43;89.94;101763.50;5208040;28;19913;-64
2022/03/03 10:20:15;;;;;;;;;;;;;;;7.56;88.99;101764.47;5207986;28;19912;-64
2022/03/03 10:23:07;;;;;;;;;;;;;;;7.66;87.53;101772.91;5207830;28;20353;-64
2022/03/03 10:25:43;;;;;;;;;;;;;;;7.74;86.77;101762.75;5207467;28;19913;-64
2022/03/03 10:28:13;;;;;;;;;;;;;;;7.85;87.74;101763.09;5208057;28;19913;-63
2022/03/03 10:31:03;;;;;;;;;;;;;;;7.97;87.28;101759.50;5207689;28;19920;-63
2022/03/03 10:33:34;;;;;;;;;;;;;;;8.04;89.29;101764.84;5207439;28;19912;-64
2022/03/03 10:36:09;;;;;;;;;;;;;;;8.09;87.89;101756.94;5207983;28;20266;-64
2022/03/03 10:38:50;;;;;;;;;;;;;;;8.26;86.63;101755.38;5207739;28;19917;-64
2022/03/03 10:41:37;;;;;;;;;;;;;;;8.49;88.63;101757.50;5207412;28;19913;-64
2022/03/03 10:44:12;;;;;;;;;;;;;;;8.57;83.32;101751.84;5207551;28;19913;-64
2022/03/03 10:47:03;;;;;;;;;;;;;;;8.58;83.43;101763.44;5207456;28;19962;-63
2022/03/03 10:49:35;;;;;;;;;;;;;;;8.69;82.46;101762.69;5207447;28;19955;-63
2022/03/03 10:52:19;;;;;;;;;;;;;;;8.78;79.83;101764.06;5207327;28;19916;-64
2022/03/03 10:54:51;;;;;;;;;;;;;;;8.76;79.24;101766.97;5207258;28;19916;-64
2022/03/03 10:57:36;;;;;;;;;;;;;;;8.86;81.89;101766.47;5207550;28;20269;-64
2022/03/03 11:00:11;;;;;;;;;;;;;;;8.94;79.40;101773.44;5207106;28;19963;-64
2022/03/03 11:02:42;;;;;;;;;;;;;;;8.76;78.31;101775.06;5225209;28;19938;-64
2022/03/03 11:05:13;;;;;;;;;;;;;;;8.86;79.17;101761.09;5225003;28;19913;-64
2022/03/03 11:07:45;;;;;;;;;;;;;;;8.92;78.49;101751.28;5207451;28;20419;-64
2022/03/03 11:10:20;;;;;;;;;;;;;;;9.01;77.35;101753.44;5207365;28;19912;-64
2022/03/03 11:12:50;;;;;;;;;;;;;;;9.13;77.93;101759.75;5207365;28;19943;-63
2022/03/03 11:15:22;;;;;;;;;;;;;;;9.14;75.52;101752.50;5225053;28;19913;-64
2022/03/03 11:17:54;;;;;;;;;;;;;;;9.17;75.85;101756.63;5207106;28;19913;-64
2022/03/03 11:20:25;;;;;;;;;;;;;;;9.24;74.37;101758.16;5207158;28;19913;-64
2022/03/03 11:22:56;;;;;;;;;;;;;;;9.35;74.92;101759.28;5207286;28;19913;-64
2022/03/03 11:25:31;;;;;;;;;;;;;;;9.52;75.11;101748.72;5206715;28;19913;-63
2022/03/03 11:28:09;;;;;;;;;;;;;;;9.70;74.74;101746.00;5206995;28;19913;-64
2022/03/03 11:30:39;;;;;;;;;;;;;;;9.91;76.35;101740.06;5207207;28;20377;-63
2022/03/03 11:33:27;;;;;;;;;;;;;;;10.09;74.45;101734.63;5207051;28;19965;-63
2022/03/03 11:35:58;;;;;;;;;;;;;;;10.23;72.62;101729.03;5207188;28;19913;-63
2022/03/03 11:38:45;;;;;;;;;;;;;;;10.27;71.77;101727.53;5209686;28;19917;-63
2022/03/03 11:41:16;;;;;;;;;;;;;;;10.30;69.86;101725.19;5210984;28;19935;-64
2022/03/03 11:43:47;;;;;;;;;;;;;;;10.37;70.66;101723.19;5210936;28;19913;-64
2022/03/03 11:46:37;;;;;;;;;;;;;;;10.40;70.06;101728.09;5210910;28;20011;-64
2022/03/03 11:49:10;;;;;;;;;;;;;;;10.39;68.39;101733.78;5229028;28;19920;-64
2022/03/03 11:51:42;;;;;;;;;;;;;;;10.31;69.48;101718.72;5210961;28;20007;-64
2022/03/03 11:54:12;;;;;;;;;;;;;;;10.31;69.38;101721.44;5228500;28;20315;-64
2022/03/03 11:57:02;;;;;;;;;;;;;;;10.43;69.98;101713.31;5228689;28;19919;-64
2022/03/03 11:59:35;;;;;;;;;;;;;;;10.44;68.99;101715.78;5210615;28;20015;-64
2022/03/03 12:02:06;;;;;;;;;;;;;;;10.45;67.57;101712.03;5210459;28;19948;-64
2022/03/03 12:04:37;;;;;;;;;;;;;;;10.54;69.99;101704.41;5210162;28;20341;-64
2022/03/03 12:07:27;;;;;;;;;;;;;;;10.59;67.65;101701.84;5210612;28;19995;-64
2022/03/03 12:09:57;;;;;;;;;;;;;;;10.52;67.33;101703.81;5210447;28;20007;-64
2022/03/03 12:12:28;;;;;;;;;;;;;;;10.54;66.86;101703.59;5209887;28;20031;-64
2022/03/03 12:15:01;;;;;;;;;;;;;;;10.43;66.76;101700.63;5228059;28;19920;-63
2022/03/03 12:17:35;;;;;;;;;;;;;;;10.43;67.73;101694.41;5210062;28;19971;-63
2022/03/03 12:20:24;;;;;;;;;;;;;;;10.57;68.48;101695.84;5210170;28;19917;-62
2022/03/03 12:23:10;;;;;;;;;;;;;;;10.69;66.76;101696.63;5210192;28;19948;-62
2022/03/03 12:25:58;;;;;;;;;;;;;;;10.84;67.33;101698.88;5209795;28;19912;-62
2022/03/03 12:28:35;;;;;;;;;;;;;;;11.09;67.34;101702.09;5210034;28;19919;-62
2022/03/03 12:31:24;;;;;;;;;;;;;;;11.28;67.55;101693.81;5209875;28;19920;-62
2022/03/03 12:34:02;;;;;;;;;;;;;;;11.31;62.47;101693.34;5209354;28;19912;-62
2022/03/03 12:36:36;;;;;;;;;;;;;;;11.26;62.37;101690.56;5209809;28;19913;-62
2022/03/03 12:39:07;;;;;;;;;;;;;;;11.28;62.79;101683.81;5209737;28;20404;-63
2022/03/03 12:41:39;;;;;;;;;;;;;;;11.46;64.70;101682.84;5209823;28;19913;-63
2022/03/03 12:44:13;;;;;;;;;;;;;;;11.57;64.30;101684.66;5209522;28;19917;-62
2022/03/03 12:46:44;;;;;;;;;;;;;;;11.54;63.30;101681.63;5209481;28;19924;-62
2022/03/03 12:49:14;;;;;;;;;;;;;;;11.48;62.23;101681.53;5209286;28;19913;-62
2022/03/03 12:51:46;;;;;;;;;;;;;;;11.48;60.83;101678.81;5209523;28;19920;-62
2022/03/03 12:54:17;;;;;;;;;;;;;;;11.47;59.56;101673.66;5209270;28;20266;-62
2022/03/03 12:57:00;;;;;;;;;;;;;;;11.66;62.11;101672.38;5227315;28;19920;-62
2022/03/03 12:59:31;;;;;;;;;;;;;;;11.77;61.57;101668.00;5209392;28;19924;-62
2022/03/03 13:02:01;;;;;;;;;;;;;;;11.91;61.77;101661.19;5209440;28;19913;-62